sensor_id;sensor_type;location;lat;lon;timestamp;P1;durP1;ratioP1;P2;durP2;ratioP2
79025;SDS011;68425;44.716;37.756;2023-03-19T00:03:19;12.35;;;4.22;;
79025;SDS011;68425;44.716;37.756;2023-03-19T00:04:21;13.82;;;4.50;;
79025;SDS011;68425;44.716;37.756;2023-03-19T00:05:24;13.13;;;4.35;;
79025;SDS011;68425;44.716;37.756;2023-03-19T00:06:25;14.27;;;4.35;;
79025;SDS011;68425;44.716;37.756;2023-03-19T00:07:27;16.33;;;4.32;;
79025;SDS011;68425;44.716;37.756;2023-03-19T00:08:28;13.82;;;4.13;;
79025;SDS011;68425;44.716;37.756;2023-03-19T00:09:30;12.60;;;4.07;;
79025;SDS011;68425;44.716;37.756;2023-03-19T00:10:31;14.57;;;4.57;;
79025;SDS011;68425;44.716;37.756;2023-03-19T00:11:32;10.73;;;4.07;;
79025;SDS011;68425;44.716;37.756;2023-03-19T00:12:34;13.52;;;4.82;;
79025;SDS011;68425;44.716;37.756;2023-03-19T00:13:35;15.05;;;4.97;;
79025;SDS011;68425;44.716;37.756;2023-03-19T00:14:37;15.88;;;4.57;;
79025;SDS011;68425;44.716;37.756;2023-03-19T00:15:39;13.15;;;4.53;;
79025;SDS011;68425;44.716;37.756;2023-03-19T00:16:41;13.65;;;4.53;;
79025;SDS011;68425;44.716;37.756;2023-03-19T00:17:42;10.07;;;4.07;;
79025;SDS011;68425;44.716;37.756;2023-03-19T00:18:44;13.57;;;4.75;;
79025;SDS011;68425;44.716;37.756;2023-03-19T00:19:47;12.57;;;4.22;;
79025;SDS011;68425;44.716;37.756;2023-03-19T00:20:48;11.02;;;3.85;;
79025;SDS011;68425;44.716;37.756;2023-03-19T00:21:50;11.77;;;4.35;;
79025;SDS011;68425;44.716;37.756;2023-03-19T00:22:52;13.88;;;4.65;;
79025;SDS011;68425;44.716;37.756;2023-03-19T00:23:53;12.38;;;4.70;;
79025;SDS011;68425;44.716;37.756;2023-03-19T00:24:57;11.90;;;4.38;;
79025;SDS011;68425;44.716;37.756;2023-03-19T00:25:58;14.55;;;4.72;;
79025;SDS011;68425;44.716;37.756;2023-03-19T00:27:00;12.75;;;4.70;;
79025;SDS011;68425;44.716;37.756;2023-03-19T00:28:03;12.13;;;4.28;;
79025;SDS011;68425;44.716;37.756;2023-03-19T00:29:05;10.85;;;4.50;;
79025;SDS011;68425;44.716;37.756;2023-03-19T00:30:06;12.65;;;4.00;;
79025;SDS011;68425;44.716;37.756;2023-03-19T00:31:12;12.65;;;3.85;;
79025;SDS011;68425;44.716;37.756;2023-03-19T00:32:15;10.95;;;3.90;;
79025;SDS011;68425;44.716;37.756;2023-03-19T00:33:16;13.02;;;4.82;;
79025;SDS011;68425;44.716;37.756;2023-03-19T00:34:20;15.15;;;4.28;;
79025;SDS011;68425;44.716;37.756;2023-03-19T00:35:23;10.65;;;4.18;;
79025;SDS011;68425;44.716;37.756;2023-03-19T00:36:24;14.05;;;4.00;;
79025;SDS011;68425;44.716;37.756;2023-03-19T00:37:28;14.25;;;4.50;;
79025;SDS011;68425;44.716;37.756;2023-03-19T00:38:30;11.27;;;3.88;;
79025;SDS011;68425;44.716;37.756;2023-03-19T00:39:32;11.07;;;4.20;;
79025;SDS011;68425;44.716;37.756;2023-03-19T00:40:33;11.38;;;4.05;;
79025;SDS011;68425;44.716;37.756;2023-03-19T00:41:35;13.48;;;4.05;;
79025;SDS011;68425;44.716;37.756;2023-03-19T00:42:37;13.45;;;4.45;;
79025;SDS011;68425;44.716;37.756;2023-03-19T00:43:38;15.38;;;4.45;;
79025;SDS011;68425;44.716;37.756;2023-03-19T00:44:40;13.40;;;4.60;;
79025;SDS011;68425;44.716;37.756;2023-03-19T00:45:41;14.68;;;4.15;;
79025;SDS011;68425;44.716;37.756;2023-03-19T00:46:43;13.52;;;4.88;;
79025;SDS011;68425;44.716;37.756;2023-03-19T00:47:45;11.93;;;4.03;;
79025;SDS011;68425;44.716;37.756;2023-03-19T00:48:47;12.75;;;4.35;;
79025;SDS011;68425;44.716;37.756;2023-03-19T00:49:49;14.00;;;4.95;;
79025;SDS011;68425;44.716;37.756;2023-03-19T00:50:50;11.65;;;3.88;;
79025;SDS011;68425;44.716;37.756;2023-03-19T00:51:52;13.70;;;4.05;;
79025;SDS011;68425;44.716;37.756;2023-03-19T00:52:53;13.57;;;3.92;;
79025;SDS011;68425;44.716;37.756;2023-03-19T00:53:54;10.63;;;4.25;;
79025;SDS011;68425;44.716;37.756;2023-03-19T00:54:56;12.43;;;4.20;;
79025;SDS011;68425;44.716;37.756;2023-03-19T00:55:57;13.00;;;4.40;;
79025;SDS011;68425;44.716;37.756;2023-03-19T00:56:59;11.20;;;4.03;;
79025;SDS011;68425;44.716;37.756;2023-03-19T00:58:00;16.27;;;4.35;;
79025;SDS011;68425;44.716;37.756;2023-03-19T00:59:02;12.98;;;4.30;;
79025;SDS011;68425;44.716;37.756;2023-03-19T01:00:04;13.68;;;4.15;;
79025;SDS011;68425;44.716;37.756;2023-03-19T01:01:07;14.80;;;4.30;;
79025;SDS011;68425;44.716;37.756;2023-03-19T01:02:09;10.00;;;3.70;;
79025;SDS011;68425;44.716;37.756;2023-03-19T01:03:10;13.65;;;4.20;;
79025;SDS011;68425;44.716;37.756;2023-03-19T01:04:12;9.77;;;4.20;;
79025;SDS011;68425;44.716;37.756;2023-03-19T01:05:14;15.07;;;4.70;;
79025;SDS011;68425;44.716;37.756;2023-03-19T01:06:16;10.13;;;4.75;;
79025;SDS011;68425;44.716;37.756;2023-03-19T01:07:17;15.32;;;4.60;;
79025;SDS011;68425;44.716;37.756;2023-03-19T01:08:18;10.27;;;3.92;;
79025;SDS011;68425;44.716;37.756;2023-03-19T01:09:20;13.23;;;4.65;;
79025;SDS011;68425;44.716;37.756;2023-03-19T01:10:22;11.57;;;4.32;;
79025;SDS011;68425;44.716;37.756;2023-03-19T01:11:24;10.85;;;4.47;;
79025;SDS011;68425;44.716;37.756;2023-03-19T01:12:25;12.30;;;4.07;;
79025;SDS011;68425;44.716;37.756;2023-03-19T01:13:27;13.98;;;4.22;;
79025;SDS011;68425;44.716;37.756;2023-03-19T01:14:28;13.40;;;4.53;;
79025;SDS011;68425;44.716;37.756;2023-03-19T01:15:33;15.05;;;3.65;;
79025;SDS011;68425;44.716;37.756;2023-03-19T01:16:36;12.75;;;4.45;;
79025;SDS011;68425;44.716;37.756;2023-03-19T01:17:38;12.25;;;4.03;;
79025;SDS011;68425;44.716;37.756;2023-03-19T01:18:40;12.00;;;4.20;;
79025;SDS011;68425;44.716;37.756;2023-03-19T01:19:41;15.98;;;4.60;;
79025;SDS011;68425;44.716;37.756;2023-03-19T01:20:43;12.20;;;3.72;;
79025;SDS011;68425;44.716;37.756;2023-03-19T01:21:44;13.07;;;4.20;;
79025;SDS011;68425;44.716;37.756;2023-03-19T01:22:48;8.85;;;3.65;;
79025;SDS011;68425;44.716;37.756;2023-03-19T01:23:50;10.68;;;4.22;;
79025;SDS011;68425;44.716;37.756;2023-03-19T01:24:55;11.15;;;4.18;;
79025;SDS011;68425;44.716;37.756;2023-03-19T01:25:57;12.40;;;3.97;;
79025;SDS011;68425;44.716;37.756;2023-03-19T01:27:00;14.48;;;4.35;;
79025;SDS011;68425;44.716;37.756;2023-03-19T01:28:05;11.00;;;3.50;;
79025;SDS011;68425;44.716;37.756;2023-03-19T01:29:09;10.80;;;4.13;;
79025;SDS011;68425;44.716;37.756;2023-03-19T01:30:10;10.35;;;3.97;;
79025;SDS011;68425;44.716;37.756;2023-03-19T01:31:30;9.70;;;3.53;;
79025;SDS011;68425;44.716;37.756;2023-03-19T01:33:07;17.25;;;4.35;;
79025;SDS011;68425;44.716;37.756;2023-03-19T01:34:19;14.60;;;3.88;;
79025;SDS011;68425;44.716;37.756;2023-03-19T01:35:25;10.60;;;3.75;;
79025;SDS011;68425;44.716;37.756;2023-03-19T01:36:27;10.18;;;3.88;;
79025;SDS011;68425;44.716;37.756;2023-03-19T01:37:35;8.93;;;3.58;;
79025;SDS011;68425;44.716;37.756;2023-03-19T01:38:37;14.23;;;3.45;;
79025;SDS011;68425;44.716;37.756;2023-03-19T01:39:48;11.35;;;4.22;;
79025;SDS011;68425;44.716;37.756;2023-03-19T01:40:49;11.43;;;4.38;;
79025;SDS011;68425;44.716;37.756;2023-03-19T01:41:52;11.52;;;4.50;;
79025;SDS011;68425;44.716;37.756;2023-03-19T01:43:12;11.23;;;3.92;;
79025;SDS011;68425;44.716;37.756;2023-03-19T01:44:32;11.43;;;3.97;;
79025;SDS011;68425;44.716;37.756;2023-03-19T01:47:48;15.63;;;4.03;;
79025;SDS011;68425;44.716;37.756;2023-03-19T01:48:57;9.68;;;3.45;;
79025;SDS011;68425;44.716;37.756;2023-03-19T01:50:02;10.38;;;4.32;;
79025;SDS011;68425;44.716;37.756;2023-03-19T01:51:05;12.82;;;4.18;;
79025;SDS011;68425;44.716;37.756;2023-03-19T01:52:23;10.75;;;3.80;;
79025;SDS011;68425;44.716;37.756;2023-03-19T01:53:49;12.02;;;3.70;;
79025;SDS011;68425;44.716;37.756;2023-03-19T01:55:13;12.77;;;4.18;;
79025;SDS011;68425;44.716;37.756;2023-03-19T01:56:38;8.82;;;4.03;;
79025;SDS011;68425;44.716;37.756;2023-03-19T01:57:57;12.60;;;4.07;;
79025;SDS011;68425;44.716;37.756;2023-03-19T01:59:26;10.02;;;4.15;;
79025;SDS011;68425;44.716;37.756;2023-03-19T02:00:37;12.48;;;4.38;;
79025;SDS011;68425;44.716;37.756;2023-03-19T02:01:58;13.00;;;4.18;;
79025;SDS011;68425;44.716;37.756;2023-03-19T02:03:03;10.93;;;4.25;;
79025;SDS011;68425;44.716;37.756;2023-03-19T02:04:31;11.73;;;3.78;;
79025;SDS011;68425;44.716;37.756;2023-03-19T02:05:33;10.10;;;3.50;;
79025;SDS011;68425;44.716;37.756;2023-03-19T02:06:40;12.27;;;4.07;;
79025;SDS011;68425;44.716;37.756;2023-03-19T02:07:43;11.95;;;4.05;;
79025;SDS011;68425;44.716;37.756;2023-03-19T02:08:45;14.52;;;4.07;;
79025;SDS011;68425;44.716;37.756;2023-03-19T02:09:48;7.65;;;3.78;;
79025;SDS011;68425;44.716;37.756;2023-03-19T02:10:50;11.75;;;4.45;;
79025;SDS011;68425;44.716;37.756;2023-03-19T02:11:55;9.48;;;3.88;;
79025;SDS011;68425;44.716;37.756;2023-03-19T02:12:57;11.82;;;4.28;;
79025;SDS011;68425;44.716;37.756;2023-03-19T02:13:58;13.07;;;4.43;;
79025;SDS011;68425;44.716;37.756;2023-03-19T02:15:00;9.73;;;3.70;;
79025;SDS011;68425;44.716;37.756;2023-03-19T02:16:02;12.05;;;4.20;;
79025;SDS011;68425;44.716;37.756;2023-03-19T02:17:04;11.57;;;4.05;;
79025;SDS011;68425;44.716;37.756;2023-03-19T02:18:06;12.43;;;3.70;;
79025;SDS011;68425;44.716;37.756;2023-03-19T02:20:16;11.82;;;3.97;;
79025;SDS011;68425;44.716;37.756;2023-03-19T02:21:38;11.68;;;3.85;;
79025;SDS011;68425;44.716;37.756;2023-03-19T02:22:41;9.15;;;4.20;;
79025;SDS011;68425;44.716;37.756;2023-03-19T02:27:01;8.73;;;3.92;;
79025;SDS011;68425;44.716;37.756;2023-03-19T02:28:03;13.23;;;4.10;;
79025;SDS011;68425;44.716;37.756;2023-03-19T02:29:05;10.80;;;3.85;;
79025;SDS011;68425;44.716;37.756;2023-03-19T02:30:19;11.05;;;4.30;;
79025;SDS011;68425;44.716;37.756;2023-03-19T02:31:29;11.38;;;4.30;;
79025;SDS011;68425;44.716;37.756;2023-03-19T02:32:31;10.25;;;4.00;;
79025;SDS011;68425;44.716;37.756;2023-03-19T02:33:32;12.75;;;4.20;;
79025;SDS011;68425;44.716;37.756;2023-03-19T02:34:36;9.75;;;4.10;;
79025;SDS011;68425;44.716;37.756;2023-03-19T02:35:43;11.27;;;4.28;;
79025;SDS011;68425;44.716;37.756;2023-03-19T02:36:59;10.88;;;4.40;;
79025;SDS011;68425;44.716;37.756;2023-03-19T02:38:07;10.38;;;4.15;;
79025;SDS011;68425;44.716;37.756;2023-03-19T02:39:14;11.38;;;4.22;;
79025;SDS011;68425;44.716;37.756;2023-03-19T02:40:25;10.77;;;4.28;;
79025;SDS011;68425;44.716;37.756;2023-03-19T02:41:31;9.23;;;3.75;;
79025;SDS011;68425;44.716;37.756;2023-03-19T02:42:34;10.52;;;3.78;;
79025;SDS011;68425;44.716;37.756;2023-03-19T02:43:38;10.80;;;4.07;;
79025;SDS011;68425;44.716;37.756;2023-03-19T02:44:40;11.45;;;4.10;;
79025;SDS011;68425;44.716;37.756;2023-03-19T02:45:41;11.30;;;4.07;;
79025;SDS011;68425;44.716;37.756;2023-03-19T02:46:43;9.80;;;3.70;;
79025;SDS011;68425;44.716;37.756;2023-03-19T02:47:44;13.23;;;4.13;;
79025;SDS011;68425;44.716;37.756;2023-03-19T02:48:46;11.07;;;4.00;;
79025;SDS011;68425;44.716;37.756;2023-03-19T02:49:48;11.75;;;3.80;;
79025;SDS011;68425;44.716;37.756;2023-03-19T02:50:49;10.32;;;3.80;;
79025;SDS011;68425;44.716;37.756;2023-03-19T02:51:51;13.02;;;4.38;;
79025;SDS011;68425;44.716;37.756;2023-03-19T02:52:52;10.43;;;3.35;;
79025;SDS011;68425;44.716;37.756;2023-03-19T02:53:53;12.75;;;4.40;;
79025;SDS011;68425;44.716;37.756;2023-03-19T02:54:55;8.77;;;3.78;;
79025;SDS011;68425;44.716;37.756;2023-03-19T02:55:58;8.10;;;3.90;;
79025;SDS011;68425;44.716;37.756;2023-03-19T02:56:59;11.43;;;4.10;;
79025;SDS011;68425;44.716;37.756;2023-03-19T02:58:01;12.48;;;4.25;;
79025;SDS011;68425;44.716;37.756;2023-03-19T02:59:03;10.15;;;4.32;;
79025;SDS011;68425;44.716;37.756;2023-03-19T03:00:04;10.95;;;3.83;;
79025;SDS011;68425;44.716;37.756;2023-03-19T03:01:07;10.38;;;3.65;;
79025;SDS011;68425;44.716;37.756;2023-03-19T03:02:08;10.38;;;3.65;;
79025;SDS011;68425;44.716;37.756;2023-03-19T03:03:10;9.48;;;3.58;;
79025;SDS011;68425;44.716;37.756;2023-03-19T03:04:12;11.02;;;3.60;;
79025;SDS011;68425;44.716;37.756;2023-03-19T03:05:16;10.45;;;3.88;;
79025;SDS011;68425;44.716;37.756;2023-03-19T03:06:18;9.18;;;3.45;;
79025;SDS011;68425;44.716;37.756;2023-03-19T03:07:20;10.77;;;4.00;;
79025;SDS011;68425;44.716;37.756;2023-03-19T03:08:22;8.70;;;3.47;;
79025;SDS011;68425;44.716;37.756;2023-03-19T03:09:24;9.52;;;3.65;;
79025;SDS011;68425;44.716;37.756;2023-03-19T03:10:25;13.15;;;3.90;;
79025;SDS011;68425;44.716;37.756;2023-03-19T03:11:27;9.63;;;3.85;;
79025;SDS011;68425;44.716;37.756;2023-03-19T03:12:28;10.10;;;3.85;;
79025;SDS011;68425;44.716;37.756;2023-03-19T03:13:30;13.75;;;4.18;;
79025;SDS011;68425;44.716;37.756;2023-03-19T03:14:31;10.27;;;3.63;;
79025;SDS011;68425;44.716;37.756;2023-03-19T03:15:33;12.43;;;4.28;;
79025;SDS011;68425;44.716;37.756;2023-03-19T03:16:35;9.23;;;3.78;;
79025;SDS011;68425;44.716;37.756;2023-03-19T03:17:38;9.23;;;4.10;;
79025;SDS011;68425;44.716;37.756;2023-03-19T03:18:40;9.13;;;3.80;;
79025;SDS011;68425;44.716;37.756;2023-03-19T03:19:42;14.32;;;3.95;;
79025;SDS011;68425;44.716;37.756;2023-03-19T03:20:43;8.80;;;3.60;;
79025;SDS011;68425;44.716;37.756;2023-03-19T03:21:46;11.07;;;4.10;;
79025;SDS011;68425;44.716;37.756;2023-03-19T03:22:48;9.90;;;3.63;;
79025;SDS011;68425;44.716;37.756;2023-03-19T03:23:49;12.20;;;3.90;;
79025;SDS011;68425;44.716;37.756;2023-03-19T03:24:51;10.40;;;3.85;;
79025;SDS011;68425;44.716;37.756;2023-03-19T03:25:52;11.13;;;3.88;;
79025;SDS011;68425;44.716;37.756;2023-03-19T03:26:54;8.48;;;3.58;;
79025;SDS011;68425;44.716;37.756;2023-03-19T03:27:56;9.82;;;3.88;;
79025;SDS011;68425;44.716;37.756;2023-03-19T03:28:57;7.72;;;3.55;;
79025;SDS011;68425;44.716;37.756;2023-03-19T03:29:58;9.32;;;3.78;;
79025;SDS011;68425;44.716;37.756;2023-03-19T03:31:00;11.50;;;4.13;;
79025;SDS011;68425;44.716;37.756;2023-03-19T03:32:02;8.43;;;3.55;;
79025;SDS011;68425;44.716;37.756;2023-03-19T03:33:03;12.27;;;3.72;;
79025;SDS011;68425;44.716;37.756;2023-03-19T03:34:05;12.23;;;3.80;;
79025;SDS011;68425;44.716;37.756;2023-03-19T03:35:07;10.05;;;3.78;;
79025;SDS011;68425;44.716;37.756;2023-03-19T03:36:09;9.93;;;3.63;;
79025;SDS011;68425;44.716;37.756;2023-03-19T03:37:10;8.30;;;3.30;;
79025;SDS011;68425;44.716;37.756;2023-03-19T03:38:12;8.00;;;3.65;;
79025;SDS011;68425;44.716;37.756;2023-03-19T03:39:13;9.30;;;3.60;;
79025;SDS011;68425;44.716;37.756;2023-03-19T03:40:16;10.35;;;3.95;;
79025;SDS011;68425;44.716;37.756;2023-03-19T03:41:18;9.82;;;3.90;;
79025;SDS011;68425;44.716;37.756;2023-03-19T03:42:20;7.95;;;3.40;;
79025;SDS011;68425;44.716;37.756;2023-03-19T03:43:21;9.02;;;3.83;;
79025;SDS011;68425;44.716;37.756;2023-03-19T03:44:22;10.10;;;3.55;;
79025;SDS011;68425;44.716;37.756;2023-03-19T03:45:24;9.38;;;3.53;;
79025;SDS011;68425;44.716;37.756;2023-03-19T03:46:26;8.90;;;3.72;;
79025;SDS011;68425;44.716;37.756;2023-03-19T03:47:28;10.82;;;3.95;;
79025;SDS011;68425;44.716;37.756;2023-03-19T03:48:29;10.68;;;3.50;;
79025;SDS011;68425;44.716;37.756;2023-03-19T03:49:31;7.78;;;3.20;;
79025;SDS011;68425;44.716;37.756;2023-03-19T03:50:33;9.43;;;3.38;;
79025;SDS011;68425;44.716;37.756;2023-03-19T03:51:40;7.97;;;3.63;;
79025;SDS011;68425;44.716;37.756;2023-03-19T03:52:42;9.60;;;4.00;;
79025;SDS011;68425;44.716;37.756;2023-03-19T03:53:43;8.65;;;3.35;;
79025;SDS011;68425;44.716;37.756;2023-03-19T03:54:46;10.75;;;3.53;;
79025;SDS011;68425;44.716;37.756;2023-03-19T03:55:47;9.27;;;3.65;;
79025;SDS011;68425;44.716;37.756;2023-03-19T03:56:52;9.48;;;3.67;;
79025;SDS011;68425;44.716;37.756;2023-03-19T03:57:55;7.68;;;3.45;;
79025;SDS011;68425;44.716;37.756;2023-03-19T03:58:56;7.05;;;3.28;;
79025;SDS011;68425;44.716;37.756;2023-03-19T03:59:57;8.43;;;3.42;;
79025;SDS011;68425;44.716;37.756;2023-03-19T04:00:59;10.27;;;3.75;;
79025;SDS011;68425;44.716;37.756;2023-03-19T04:02:01;9.32;;;3.45;;
79025;SDS011;68425;44.716;37.756;2023-03-19T04:03:02;9.10;;;3.38;;
79025;SDS011;68425;44.716;37.756;2023-03-19T04:04:05;11.27;;;3.92;;
79025;SDS011;68425;44.716;37.756;2023-03-19T04:05:06;9.13;;;3.63;;
79025;SDS011;68425;44.716;37.756;2023-03-19T04:06:08;7.80;;;3.08;;
79025;SDS011;68425;44.716;37.756;2023-03-19T04:07:14;8.43;;;3.03;;
79025;SDS011;68425;44.716;37.756;2023-03-19T04:08:19;7.65;;;3.30;;
79025;SDS011;68425;44.716;37.756;2023-03-19T04:09:21;8.00;;;3.20;;
79025;SDS011;68425;44.716;37.756;2023-03-19T04:10:23;8.88;;;3.38;;
79025;SDS011;68425;44.716;37.756;2023-03-19T04:11:24;7.57;;;3.15;;
79025;SDS011;68425;44.716;37.756;2023-03-19T04:12:26;8.57;;;3.20;;
79025;SDS011;68425;44.716;37.756;2023-03-19T04:13:28;8.27;;;3.15;;
79025;SDS011;68425;44.716;37.756;2023-03-19T04:14:31;8.48;;;3.30;;
79025;SDS011;68425;44.716;37.756;2023-03-19T04:15:32;8.80;;;3.63;;
79025;SDS011;68425;44.716;37.756;2023-03-19T04:16:35;10.20;;;3.58;;
79025;SDS011;68425;44.716;37.756;2023-03-19T04:17:37;7.93;;;3.10;;
79025;SDS011;68425;44.716;37.756;2023-03-19T04:18:40;9.73;;;3.42;;
79025;SDS011;68425;44.716;37.756;2023-03-19T04:19:41;9.48;;;4.00;;
79025;SDS011;68425;44.716;37.756;2023-03-19T04:20:43;10.68;;;3.40;;
79025;SDS011;68425;44.716;37.756;2023-03-19T04:21:45;9.98;;;3.50;;
79025;SDS011;68425;44.716;37.756;2023-03-19T04:22:46;8.10;;;3.50;;
79025;SDS011;68425;44.716;37.756;2023-03-19T04:23:48;11.90;;;3.63;;
79025;SDS011;68425;44.716;37.756;2023-03-19T04:24:49;8.75;;;3.80;;
79025;SDS011;68425;44.716;37.756;2023-03-19T04:25:51;6.55;;;2.90;;
79025;SDS011;68425;44.716;37.756;2023-03-19T04:26:52;8.82;;;3.20;;
79025;SDS011;68425;44.716;37.756;2023-03-19T04:27:55;11.13;;;4.25;;
79025;SDS011;68425;44.716;37.756;2023-03-19T04:28:57;8.90;;;3.33;;
79025;SDS011;68425;44.716;37.756;2023-03-19T04:29:59;9.30;;;3.10;;
79025;SDS011;68425;44.716;37.756;2023-03-19T04:31:03;12.07;;;3.50;;
79025;SDS011;68425;44.716;37.756;2023-03-19T04:32:07;10.90;;;3.53;;
79025;SDS011;68425;44.716;37.756;2023-03-19T04:33:09;9.90;;;3.70;;
79025;SDS011;68425;44.716;37.756;2023-03-19T04:34:12;8.98;;;3.25;;
79025;SDS011;68425;44.716;37.756;2023-03-19T04:35:13;8.60;;;3.15;;
79025;SDS011;68425;44.716;37.756;2023-03-19T04:36:15;8.38;;;3.17;;
79025;SDS011;68425;44.716;37.756;2023-03-19T04:37:18;6.63;;;2.67;;
79025;SDS011;68425;44.716;37.756;2023-03-19T04:38:23;10.20;;;3.08;;
79025;SDS011;68425;44.716;37.756;2023-03-19T04:39:28;6.88;;;2.75;;
79025;SDS011;68425;44.716;37.756;2023-03-19T04:40:31;9.60;;;3.33;;
79025;SDS011;68425;44.716;37.756;2023-03-19T04:41:33;9.93;;;2.97;;
79025;SDS011;68425;44.716;37.756;2023-03-19T04:43:00;8.57;;;3.60;;
79025;SDS011;68425;44.716;37.756;2023-03-19T04:44:05;16.35;;;5.32;;
79025;SDS011;68425;44.716;37.756;2023-03-19T04:45:08;22.80;;;5.85;;
79025;SDS011;68425;44.716;37.756;2023-03-19T04:46:10;21.92;;;7.07;;
79025;SDS011;68425;44.716;37.756;2023-03-19T04:47:11;21.77;;;6.47;;
79025;SDS011;68425;44.716;37.756;2023-03-19T04:48:24;29.05;;;8.80;;
79025;SDS011;68425;44.716;37.756;2023-03-19T04:49:26;19.15;;;5.82;;
79025;SDS011;68425;44.716;37.756;2023-03-19T04:50:30;21.73;;;6.90;;
79025;SDS011;68425;44.716;37.756;2023-03-19T04:51:31;19.50;;;5.63;;
79025;SDS011;68425;44.716;37.756;2023-03-19T04:52:33;15.25;;;5.57;;
79025;SDS011;68425;44.716;37.756;2023-03-19T04:53:37;16.88;;;5.90;;
79025;SDS011;68425;44.716;37.756;2023-03-19T04:54:39;18.73;;;5.25;;
79025;SDS011;68425;44.716;37.756;2023-03-19T04:55:42;19.40;;;5.72;;
79025;SDS011;68425;44.716;37.756;2023-03-19T04:56:50;14.73;;;5.65;;
79025;SDS011;68425;44.716;37.756;2023-03-19T04:57:55;22.00;;;6.13;;
79025;SDS011;68425;44.716;37.756;2023-03-19T04:59:01;21.30;;;6.25;;
79025;SDS011;68425;44.716;37.756;2023-03-19T05:00:02;19.75;;;6.07;;
79025;SDS011;68425;44.716;37.756;2023-03-19T05:01:05;15.57;;;5.28;;
79025;SDS011;68425;44.716;37.756;2023-03-19T05:02:26;18.88;;;5.28;;
79025;SDS011;68425;44.716;37.756;2023-03-19T05:03:28;17.80;;;5.03;;
79025;SDS011;68425;44.716;37.756;2023-03-19T05:04:31;19.45;;;5.57;;
79025;SDS011;68425;44.716;37.756;2023-03-19T05:05:37;19.90;;;5.90;;
79025;SDS011;68425;44.716;37.756;2023-03-19T05:06:41;18.67;;;5.63;;
79025;SDS011;68425;44.716;37.756;2023-03-19T05:07:43;15.00;;;5.88;;
79025;SDS011;68425;44.716;37.756;2023-03-19T05:08:45;20.98;;;5.65;;
79025;SDS011;68425;44.716;37.756;2023-03-19T05:09:50;18.67;;;5.40;;
79025;SDS011;68425;44.716;37.756;2023-03-19T05:10:52;15.68;;;5.63;;
79025;SDS011;68425;44.716;37.756;2023-03-19T05:11:53;16.88;;;5.03;;
79025;SDS011;68425;44.716;37.756;2023-03-19T05:12:56;12.27;;;4.82;;
79025;SDS011;68425;44.716;37.756;2023-03-19T05:13:57;16.80;;;5.13;;
79025;SDS011;68425;44.716;37.756;2023-03-19T05:15:04;16.67;;;5.20;;
79025;SDS011;68425;44.716;37.756;2023-03-19T05:16:12;14.68;;;5.47;;
79025;SDS011;68425;44.716;37.756;2023-03-19T05:17:14;17.10;;;5.43;;
79025;SDS011;68425;44.716;37.756;2023-03-19T05:18:38;18.08;;;4.60;;
79025;SDS011;68425;44.716;37.756;2023-03-19T05:19:40;18.23;;;5.55;;
79025;SDS011;68425;44.716;37.756;2023-03-19T05:20:43;13.10;;;4.63;;
79025;SDS011;68425;44.716;37.756;2023-03-19T05:21:56;14.10;;;4.45;;
79025;SDS011;68425;44.716;37.756;2023-03-19T05:22:58;16.27;;;5.38;;
79025;SDS011;68425;44.716;37.756;2023-03-19T05:24:13;13.23;;;4.43;;
79025;SDS011;68425;44.716;37.756;2023-03-19T05:25:15;16.45;;;4.78;;
79025;SDS011;68425;44.716;37.756;2023-03-19T05:26:17;16.83;;;4.95;;
79025;SDS011;68425;44.716;37.756;2023-03-19T05:27:37;17.38;;;4.38;;
79025;SDS011;68425;44.716;37.756;2023-03-19T05:28:41;12.40;;;4.65;;
79025;SDS011;68425;44.716;37.756;2023-03-19T05:29:44;17.55;;;5.05;;
79025;SDS011;68425;44.716;37.756;2023-03-19T05:30:58;14.38;;;4.75;;
79025;SDS011;68425;44.716;37.756;2023-03-19T05:32:09;13.90;;;4.53;;
79025;SDS011;68425;44.716;37.756;2023-03-19T05:33:10;14.05;;;4.68;;
79025;SDS011;68425;44.716;37.756;2023-03-19T05:34:15;14.35;;;4.70;;
79025;SDS011;68425;44.716;37.756;2023-03-19T05:35:17;17.25;;;5.10;;
79025;SDS011;68425;44.716;37.756;2023-03-19T05:36:19;16.33;;;4.88;;
79025;SDS011;68425;44.716;37.756;2023-03-19T05:37:30;12.57;;;4.22;;
79025;SDS011;68425;44.716;37.756;2023-03-19T05:38:32;14.45;;;4.50;;
79025;SDS011;68425;44.716;37.756;2023-03-19T05:39:39;14.32;;;4.43;;
79025;SDS011;68425;44.716;37.756;2023-03-19T05:40:43;14.38;;;4.43;;
79025;SDS011;68425;44.716;37.756;2023-03-19T05:42:04;14.10;;;4.28;;
79025;SDS011;68425;44.716;37.756;2023-03-19T05:43:07;11.13;;;4.05;;
79025;SDS011;68425;44.716;37.756;2023-03-19T05:44:09;10.55;;;4.00;;
79025;SDS011;68425;44.716;37.756;2023-03-19T05:45:24;10.40;;;3.85;;
79025;SDS011;68425;44.716;37.756;2023-03-19T05:46:29;13.45;;;4.28;;
79025;SDS011;68425;44.716;37.756;2023-03-19T05:47:31;12.57;;;4.05;;
79025;SDS011;68425;44.716;37.756;2023-03-19T05:48:32;9.25;;;3.72;;
79025;SDS011;68425;44.716;37.756;2023-03-19T05:49:35;12.18;;;4.20;;
79025;SDS011;68425;44.716;37.756;2023-03-19T05:50:37;12.18;;;4.60;;
79025;SDS011;68425;44.716;37.756;2023-03-19T05:51:54;15.45;;;4.85;;
79025;SDS011;68425;44.716;37.756;2023-03-19T05:52:56;13.90;;;4.38;;
79025;SDS011;68425;44.716;37.756;2023-03-19T05:53:57;13.73;;;4.20;;
79025;SDS011;68425;44.716;37.756;2023-03-19T05:55:08;13.38;;;5.00;;
79025;SDS011;68425;44.716;37.756;2023-03-19T05:56:33;13.63;;;4.65;;
79025;SDS011;68425;44.716;37.756;2023-03-19T05:57:54;13.65;;;4.70;;
79025;SDS011;68425;44.716;37.756;2023-03-19T05:58:59;14.60;;;4.82;;
79025;SDS011;68425;44.716;37.756;2023-03-19T06:00:06;14.98;;;5.18;;
79025;SDS011;68425;44.716;37.756;2023-03-19T06:01:08;14.45;;;4.60;;
79025;SDS011;68425;44.716;37.756;2023-03-19T06:02:10;11.07;;;4.03;;
79025;SDS011;68425;44.716;37.756;2023-03-19T06:03:13;13.73;;;4.38;;
79025;SDS011;68425;44.716;37.756;2023-03-19T06:04:20;12.40;;;4.10;;
79025;SDS011;68425;44.716;37.756;2023-03-19T06:05:21;14.90;;;4.65;;
79025;SDS011;68425;44.716;37.756;2023-03-19T06:06:29;14.45;;;4.43;;
79025;SDS011;68425;44.716;37.756;2023-03-19T06:07:31;10.88;;;4.30;;
79025;SDS011;68425;44.716;37.756;2023-03-19T06:08:33;12.48;;;4.22;;
79025;SDS011;68425;44.716;37.756;2023-03-19T06:09:48;14.02;;;4.70;;
79025;SDS011;68425;44.716;37.756;2023-03-19T06:10:49;15.40;;;5.20;;
79025;SDS011;68425;44.716;37.756;2023-03-19T06:11:52;12.20;;;4.20;;
79025;SDS011;68425;44.716;37.756;2023-03-19T06:13:12;13.10;;;4.60;;
79025;SDS011;68425;44.716;37.756;2023-03-19T06:14:17;12.93;;;4.78;;
79025;SDS011;68425;44.716;37.756;2023-03-19T06:15:33;15.02;;;4.55;;
79025;SDS011;68425;44.716;37.756;2023-03-19T06:16:43;14.02;;;5.70;;
79025;SDS011;68425;44.716;37.756;2023-03-19T06:17:44;14.32;;;5.45;;
79025;SDS011;68425;44.716;37.756;2023-03-19T06:18:48;16.42;;;5.45;;
79025;SDS011;68425;44.716;37.756;2023-03-19T06:19:50;16.15;;;5.35;;
79025;SDS011;68425;44.716;37.756;2023-03-19T06:20:52;12.50;;;4.47;;
79025;SDS011;68425;44.716;37.756;2023-03-19T06:21:56;12.25;;;4.63;;
79025;SDS011;68425;44.716;37.756;2023-03-19T06:22:58;12.15;;;4.50;;
79025;SDS011;68425;44.716;37.756;2023-03-19T06:23:59;11.35;;;4.45;;
79025;SDS011;68425;44.716;37.756;2023-03-19T06:25:07;11.90;;;4.50;;
79025;SDS011;68425;44.716;37.756;2023-03-19T06:26:11;10.77;;;4.28;;